Latest Weather Observations for Dartmoor

IDV60801

Issued at 6:02 pm EST Thursday 30 July 2015 (issued every 30 minutes, with the page automatically refreshed every 10 minutes)

About weather observations | Map of weather stations | Latest weather observations for VIC | Other Formats
Station Details ID: 090194 Name: DARTMOOR Lat: -37.92 Lon: 141.26 Height: 51.0 m
Data from the previous 72 hours. | See also: Recent months at Dartmoor
Date/Time
EST
Temp
°C
App
Temp
°C
Dew
Point
Rel
Hum
%
Delta-T
°C
Wind Press
QNH
hPa
Press
MSL
hPa
Rain
since 9 am
mm
Dir
 
Spd
km/h
Gust
km/h
Spd
kts
Gust
kts
30/06:00pm 8.8 - - - - WSW 11 20 6 11 1015.0 1015.1 5.4
30/05:30pm 9.4 - - - - SW 22 35 12 19 1014.4 1014.5 5.0
30/05:16pm 9.7 - - - - WSW 28 48 15 26 1014.0 1014.1 4.6
30/05:00pm 10.0 - - - - WSW 22 44 12 24 1013.5 1013.6 3.8
30/04:47pm 10.3 - - - - W 30 50 16 27 1013.1 1013.2 3.0
30/04:30pm 11.0 - - - - NNW 22 35 12 19 1011.3 1011.4 0.2
30/04:00pm 11.0 - - - - NNW 26 44 14 24 1011.4 1011.5 0.2
30/03:30pm 11.3 - - - - NNW 32 43 17 23 1011.5 1011.6 0.2
30/03:00pm 11.6 - - - - NNW 30 50 16 27 1011.3 1011.4 0.2
30/02:43pm 11.1 - - - - NNW 30 48 16 26 1011.5 1011.6 0.2
30/02:30pm 10.7 - - - - NNW 28 44 15 24 1011.7 1011.8 0.2
30/02:00pm 10.5 - - - - NNW 28 46 15 25 1011.8 1011.9 0.2
30/01:30pm 10.4 - - - - N 28 43 15 23 1011.9 1012.0 0.2
30/01:00pm 10.3 - - - - NNW 26 43 14 23 1012.5 1012.6 0.2
30/12:30pm 9.8 - - - - NNW 30 50 16 27 1013.3 1013.4 0.2
30/12:16pm 9.6 - - - - NNW 32 54 17 29 1013.7 1013.8 0.2
30/12:00pm 10.7 - - - - NNW 28 41 15 22 1014.0 1014.1 0.2
30/11:30am 10.4 - - - - N 22 33 12 18 1013.9 1014.0 0.2
30/11:00am 10.0 - - - - N 24 37 13 20 1014.3 1014.4 0.2
30/10:30am 9.3 - - - - N 24 41 13 22 1014.5 1014.6 0.2
30/10:00am 8.6 - - - - N 20 32 11 17 1015.1 1015.2 0.2
30/09:30am 7.9 - - - - N 19 28 10 15 1015.6 1015.7 0.2
30/09:00am 7.5 - - - - N 17 28 9 15 1016.8 1016.9 0.2
30/08:30am 7.9 - - - - N 15 22 8 12 1016.8 1016.9 0.2
30/08:00am 7.6 - - - - N 13 20 7 11 1016.5 1016.6 0.2
30/07:30am 8.5 - - - - N 17 28 9 15 1016.7 1016.8 0.0
30/07:00am 8.1 - - - - N 17 30 9 16 1016.8 1016.9 0.0
30/06:30am 8.1 - - - - N 19 24 10 13 1016.8 1016.9 0.0
30/06:00am 7.9 - - - - N 19 26 10 14 1017.1 1017.2 0.0
30/05:30am 7.8 - - - - N 17 24 9 13 1017.6 1017.7 0.0
30/05:00am 7.7 - - - - N 19 28 10 15 1018.3 1018.4 0.0
30/04:30am 7.7 - - - - N 20 30 11 16 1018.6 1018.7 0.0
30/04:00am 7.7 - - - - N 20 33 11 18 1019.1 1019.2 0.0
30/03:30am 7.6 - - - - N 19 30 10 16 1019.6 1019.7 0.0
30/03:00am 7.4 - - - - N 17 30 9 16 1020.2 1020.3 0.0
30/02:30am 7.2 - - - - N 15 24 8 13 1020.8 1020.9 0.0
30/02:00am 7.4 - - - - N 19 26 10 14 1021.0 1021.1 0.0
30/01:30am 7.7 - - - - N 19 28 10 15 1021.2 1021.3 0.0
30/01:00am 7.8 - - - - N 20 32 11 17 1021.4 1021.5 0.0
30/12:30am 8.1 - - - - N 17 24 9 13 1022.2 1022.3 0.0
30/12:00am 7.7 - - - - N 17 24 9 13 1022.8 1022.9 0.0
 
Date/Time
EST
Temp
°C
App
Temp
°C
Dew
Point
Rel
Hum
%
Delta-T
°C
Wind Press
QNH
hPa
Press
MSL
hPa
Rain
since 9 am
mm
Dir
 
Spd
km/h
Gust
km/h
Spd
kts
Gust
kts
29/11:30pm 7.6 - - - - N 13 20 7 11 1023.4 1023.5 0.0
29/11:00pm 7.7 - - - - N 13 19 7 10 1023.6 1023.7 0.0
29/10:30pm 8.0 - - - - N 11 17 6 9 1023.7 1023.8 0.0
29/10:00pm 8.2 - - - - N 11 19 6 10 1024.0 1024.1 0.0
29/09:30pm 8.8 - - - - N 15 22 8 12 1024.1 1024.2 0.0
29/09:00pm 9.2 - - - - N 19 35 10 19 1024.4 1024.5 0.0
29/08:30pm 9.4 - - - - N 17 28 9 15 1024.3 1024.4 0.0
29/08:00pm 9.3 - - - - N 15 24 8 13 1024.5 1024.6 0.0
29/07:30pm 9.2 - - - - N 13 20 7 11 1024.9 1025.0 0.0
29/07:00pm 9.5 - - - - N 15 20 8 11 1025.2 1025.3 0.0
29/06:30pm 9.7 - - - - N 13 22 7 12 1024.8 1024.9 0.0
29/06:00pm 9.7 - - - - N 13 19 7 10 1024.7 1024.8 0.0
29/05:30pm 9.9 - - - - N 11 19 6 10 1025.1 1025.2 0.0
29/05:00pm 10.3 - - - - N 15 20 8 11 1025.3 1025.4 0.0
29/04:30pm 10.9 - - - - N 19 28 10 15 1025.6 1025.7 0.0
29/04:00pm 11.0 - - - - N 15 22 8 12 1025.7 1025.8 0.0
29/03:30pm 11.6 - - - - NNW 19 30 10 16 1026.0 1026.1 0.0
29/03:00pm 11.5 - - - - N 19 28 10 15 1026.0 1026.1 0.0
29/02:30pm 11.4 - - - - NNW 17 32 9 17 1026.4 1026.5 0.0
29/02:00pm 11.9 - - - - N 17 30 9 16 1026.8 1026.9 0.0
29/01:30pm 11.1 - - - - N 17 28 9 15 1027.1 1027.2 0.0
29/01:00pm 11.3 - - - - N 15 28 8 15 1028.1 1028.3 0.0
29/12:30pm 10.8 - - - - N 13 20 7 11 1029.1 1029.2 0.0
29/12:00pm 10.2 - - - - N 11 19 6 10 1029.7 1029.8 0.0
29/11:30am 9.6 - - - - N 13 22 7 12 1030.4 1030.5 0.0
29/11:00am 8.8 - - - - N 7 13 4 7 1030.8 1030.9 0.0
29/10:30am 8.4 - - - - N 9 13 5 7 1031.0 1031.1 0.0
29/10:00am 8.2 - - - - N 9 15 5 8 1031.5 1031.6 0.0
29/09:30am 7.7 - - - - N 7 11 4 6 1031.4 1031.5 0.0
29/09:00am 7.2 - - - - N 7 11 4 6 1031.3 1031.4 0.2
29/08:30am 6.7 - - - - NNE 9 13 5 7 1031.2 1031.3 0.2
29/08:00am 6.4 - - - - N 7 11 4 6 1031.5 1031.6 0.2
29/07:30am 6.3 - - - - N 9 13 5 7 1031.6 1031.7 0.2
29/07:00am 6.3 - - - - N 9 13 5 7 1031.5 1031.6 0.2
29/06:30am 6.2 - - - - N 9 13 5 7 1031.3 1031.4 0.2
29/06:00am 6.4 - - - - N 9 13 5 7 1031.3 1031.4 0.2
29/05:30am 6.1 - - - - N 9 13 5 7 1031.2 1031.3 0.2
29/05:00am 5.7 - - - - CALM 0 0 0 0 1031.3 1031.4 0.0
29/04:30am 5.5 - - - - CALM 0 0 0 0 1031.5 1031.6 0.0
29/04:00am 4.6 - - - - CALM 0 0 0 0 1031.5 1031.6 0.0
29/03:30am 5.3 - - - - N 4 6 2 3 1031.9 1032.0 0.0
29/03:00am 4.5 - - - - CALM 0 0 0 0 1031.8 1031.9 0.0
29/02:30am 4.2 - - - - CALM 0 0 0 0 1031.9 1032.0 0.0
29/02:00am 4.4 - - - - NNE 4 9 2 5 1032.1 1032.2 0.0
29/01:30am 4.5 - - - - NNE 4 6 2 3 1032.4 1032.5 0.0
29/01:00am 3.6 - - - - CALM 0 0 0 0 1032.7 1032.8 0.0
29/12:30am 3.6 - - - - CALM 0 0 0 0 1032.8 1032.9 0.0
29/12:00am 5.0 - - - - CALM 0 0 0 0 1033.3 1033.4 0.0
 
Date/Time
EST
Temp
°C
App
Temp
°C
Dew
Point
Rel
Hum
%
Delta-T
°C
Wind Press
QNH
hPa
Press
MSL
hPa
Rain
since 9 am
mm
Dir
 
Spd
km/h
Gust
km/h
Spd
kts
Gust
kts
28/11:30pm 5.1 - - - - CALM 0 0 0 0 1033.4 1033.5 0.0
28/11:00pm 4.3 - - - - CALM 0 0 0 0 1033.3 1033.4 0.0
28/10:30pm 5.0 - - - - CALM 0 0 0 0 1033.6 1033.7 0.0
28/10:00pm 5.1 - - - - CALM 0 0 0 0 1033.9 1034.0 0.0
28/09:30pm 5.7 - - - - CALM 0 0 0 0 1033.9 1034.0 0.0
28/09:00pm 5.8 - - - - CALM 0 0 0 0 1034.0 1034.1 0.0
28/08:30pm 6.4 - - - - CALM 0 0 0 0 1034.1 1034.2 0.0
28/08:00pm 6.4 - - - - CALM 0 0 0 0 1034.2 1034.3 0.0
28/07:30pm 7.2 - - - - CALM 0 0 0 0 1034.3 1034.4 0.0
28/07:00pm 7.9 - - - - CALM 0 0 0 0 1034.1 1034.2 0.0
28/06:30pm 8.1 - - - - CALM 0 0 0 0 1033.7 1033.8 0.0
28/06:00pm 9.6 - - - - WNW 2 4 1 2 1033.6 1033.7 0.0
28/05:30pm 11.3 - - - - WSW 4 6 2 3 1033.7 1033.8 0.0
28/05:00pm 12.2 - - - - SW 2 6 1 3 1033.4 1033.5 0.0
28/04:30pm 11.8 - - - - SW 9 15 5 8 1033.5 1033.6 0.0
28/04:00pm 12.8 - - - - WSW 7 11 4 6 1033.6 1033.7 0.0
28/03:30pm 12.5 - - - - WSW 6 9 3 5 1033.5 1033.6 0.0
28/03:00pm 11.9 - - - - W 7 11 4 6 1033.5 1033.6 0.0
28/02:30pm 12.4 - - - - SW 7 15 4 8 1033.4 1033.5 0.0
28/02:00pm 13.2 - - - - WNW 13 24 7 13 1033.7 1033.8 0.0
28/01:30pm 13.1 - - - - NW 17 24 9 13 1033.9 1034.0 0.0
28/01:00pm 12.2 - - - - NW 13 20 7 11 1034.5 1034.6 0.0
28/12:30pm 10.8 - - - - WNW 11 15 6 8 1034.9 1035.0 0.0
28/12:00pm 10.1 - - - - WNW 11 17 6 9 1035.4 1035.5 0.0
28/11:30am 9.7 - - - - NW 9 15 5 8 1035.8 1035.9 0.0
28/11:00am 9.2 - - - - NNW 11 19 6 10 1036.2 1036.3 0.0
28/10:30am 8.4 - - - - N 9 15 5 8 1035.9 1036.0 0.0
28/10:00am 7.7 - - - - N 9 13 5 7 1035.8 1035.9 0.0
28/09:30am 6.9 - - - - NNW 7 13 4 7 1035.7 1035.8 0.0
28/09:00am 6.2 - - - - CALM 0 0 0 0 1035.6 1035.7 0.6
28/08:30am 5.5 - - - - CALM 0 0 0 0 1035.7 1035.8 0.6
28/08:00am 5.1 - - - - CALM 0 0 0 0 1035.5 1035.6 0.6
28/07:30am 4.6 - - - - CALM 0 0 0 0 1035.3 1035.4 0.6
28/07:00am 4.3 - - - - CALM 0 0 0 0 1035.0 1035.1 0.6
28/06:30am 4.1 - - - - N 4 6 2 3 1034.6 1034.7 0.6
28/06:00am 4.1 - - - - N 4 7 2 4 1034.2 1034.3 0.6
28/05:30am 4.0 - - - - NNE 6 7 3 4 1033.8 1033.9 0.6
28/05:00am 3.9 - - - - N 4 9 2 5 1033.7 1033.8 0.4
28/04:30am 3.7 - - - - CALM 0 0 0 0 1033.6 1033.7 0.4
28/04:00am 3.7 - - - - NE 2 4 1 2 1033.7 1033.8 0.4
28/03:30am 3.9 - - - - CALM 0 0 0 0 1033.9 1034.0 0.4
28/03:00am 3.8 - - - - CALM 0 0 0 0 1034.1 1034.2 0.4
28/02:30am 3.5 - - - - CALM 0 0 0 0 1034.2 1034.3 0.4
28/02:00am 3.5 - - - - N 2 6 1 3 1033.8 1033.9 0.4
28/01:30am 3.1 - - - - ENE 2 6 1 3 1033.7 1033.8 0.4
28/01:00am 4.8 - - - - NNW 7 9 4 5 1033.4 1033.5 0.4
28/12:30am 4.8 - - - - NNW 7 9 4 5 1033.5 1033.6 0.4
28/12:00am 5.1 - - - - NNW 4 6 2 3 1033.4 1033.5 0.4
 
Date/Time
EST
Temp
°C
App
Temp
°C
Dew
Point
Rel
Hum
%
Delta-T
°C
Wind Press
QNH
hPa
Press
MSL
hPa
Rain
since 9 am
mm
Dir
 
Spd
km/h
Gust
km/h
Spd
kts
Gust
kts
27/11:30pm 5.4 - - - - NNW 9 11 5 6 1033.2 1033.3 0.4
27/11:00pm 5.4 - - - - NNW 9 11 5 6 1033.2 1033.3 0.4
27/10:30pm 5.1 - - - - NNW 2 7 1 4 1033.3 1033.4 0.4
27/10:00pm 5.8 - - - - CALM 0 0 0 0 1033.3 1033.4 0.4
27/09:30pm 6.0 - - - - NNW 6 7 3 4 1033.1 1033.2 0.4
27/09:00pm 6.3 - - - - NW 6 7 3 4 1033.1 1033.2 0.2
27/08:30pm 6.1 - - - - NW 9 11 5 6 1032.9 1033.0 0.2
27/08:00pm 6.7 - - - - NW 7 7 4 4 1033.0 1033.1 0.2
27/07:30pm 6.9 - - - - NW 7 9 4 5 1032.8 1032.9 0.2
27/07:00pm 7.0 - - - - NW 7 9 4 5 1032.6 1032.7 0.2
27/06:30pm 7.4 - - - - NW 4 6 2 3 1032.4 1032.5 0.2

Other Formats:

Comma delimited format used in spreadsheet applications
http://www.bom.gov.au/fwo/IDV60801/IDV60801.95822.axf

JavaScript Object Notation format (JSON) in row-major order
http://www.bom.gov.au/fwo/IDV60801/IDV60801.95822.json